Time;durP1;ratioP1;P1;durP2;ratioP2;P2;SDS_P1;SDS_P2;PMS_P1;PMS_P2;Temp;Humidity;BMP_temperature;BMP_pressure;BME280_temperature;BME280_humidity;BME280_pressure;Samples;Min_cycle;Max_cycle;Signal;HPM_P1;HPM_P2
2021/10/19 00:02:06;;;;;;;1999.90;999.90;;;;;;;12.11;69.02;101773.13;15614012;28;20518;-55
2021/10/19 00:09:39;;;;;;;1999.90;999.90;;;;;;;12.14;68.84;101789.28;15613189;28;20041;-54
2021/10/19 00:17:12;;;;;;;1999.90;999.90;;;;;;;11.84;69.59;101788.06;15612374;28;20119;-55
2021/10/19 00:24:45;;;;;;;1999.90;999.90;;;;;;;11.40;71.37;101763.59;15611943;28;20034;-59
2021/10/19 00:32:19;;;;;;;1999.90;999.90;;;;;;;11.61;70.66;101749.16;15612465;28;20045;-53
2021/10/19 00:39:51;;;;;;;1999.90;999.90;;;;;;;11.40;72.01;101748.81;15611873;28;20064;-57
2021/10/19 00:47:25;;;;;;;1999.90;999.90;;;;;;;11.66;71.63;101729.47;15611935;28;20049;-55
2021/10/19 00:54:59;;;;;;;1999.90;999.90;;;;;;;11.88;70.70;101737.06;15593103;28;20042;-56
2021/10/19 01:02:33;;;;;;;;;;;;;;;12.10;70.54;101737.91;15609715;28;20046;-52
2021/10/19 01:10:07;;;;;;;1999.90;999.90;;;;;;;11.73;71.61;101727.88;15611017;28;20379;-55
2021/10/19 01:17:44;;;;;;;;;;;;;;;11.78;71.16;101727.78;15610352;28;20056;-55
2021/10/19 01:25:22;;;;;;;1999.90;999.90;;;;;;;11.76;71.17;101718.84;15607587;28;19924;-57
2021/10/19 01:32:55;;;;;;;1999.90;999.90;;;;;;;11.23;73.18;101687.97;15609604;28;20502;-57
2021/10/19 01:40:30;;;;;;;1999.90;999.90;;;;;;;11.30;73.62;101684.75;15608954;28;20049;-56
2021/10/19 01:48:02;;;;;;;1999.90;999.90;;;;;;;11.32;73.55;101697.25;15608130;28;20049;-55
2021/10/19 01:55:38;;;;;;;1999.90;999.90;;;;;;;11.66;72.50;101693.94;15610507;28;20156;-56
2021/10/19 02:03:10;;;;;;;1999.90;999.90;;;;;;;11.84;72.32;101706.13;15600887;28;20144;-53
2021/10/19 02:10:44;;;;;;;1999.90;999.90;;;;;;;11.78;72.15;101712.97;15623969;28;20088;-56
2021/10/19 02:18:17;;;;;;;1999.90;999.90;;;;;;;11.49;73.37;101675.06;15620571;28;20056;-55
2021/10/19 02:25:51;;;;;;;1999.90;999.90;;;;;;;11.78;72.53;101699.00;15612807;28;20037;-56
2021/10/19 02:33:23;;;;;;;1999.90;999.90;;;;;;;11.99;72.06;101683.38;15602869;28;20140;-57
2021/10/19 02:40:57;;;;;;;1999.90;999.90;;;;;;;11.94;72.10;101665.88;15601328;28;20136;-56
2021/10/19 02:48:30;;;;;;;1999.90;999.90;;;;;;;12.02;72.08;101674.34;15618817;28;20069;-58
2021/10/19 02:56:04;;;;;;;1999.90;999.90;;;;;;;12.10;71.83;101662.38;15651048;28;20049;-56
2021/10/19 03:03:36;;;;;;;1999.90;999.90;;;;;;;11.91;72.29;101660.94;15635285;28;20049;-58
2021/10/19 03:11:10;;;;;;;1999.90;999.90;;;;;;;11.81;72.85;101667.63;15616514;28;20072;-56
2021/10/19 03:18:43;;;;;;;1999.90;999.90;;;;;;;11.98;72.23;101658.50;15615945;28;20041;-58
2021/10/19 03:26:17;;;;;;;1999.90;999.90;;;;;;;11.89;72.60;101666.84;15619331;28;20064;-55
2021/10/19 03:33:50;;;;;;;1999.90;999.90;;;;;;;11.97;72.16;101660.47;15618736;28;20081;-54
2021/10/19 03:41:24;;;;;;;1999.90;999.90;;;;;;;12.22;71.50;101658.97;15616272;28;20065;-55
2021/10/19 03:48:56;;;;;;;1999.90;999.90;;;;;;;11.92;72.24;101648.59;15597068;28;20050;-60
2021/10/19 03:56:30;;;;;;;1999.90;999.90;;;;;;;11.94;72.48;101647.13;15612748;28;20192;-58
2021/10/19 04:04:03;;;;;;;1999.90;999.90;;;;;;;12.02;72.14;101657.56;15612111;28;20366;-58
2021/10/19 04:11:36;;;;;;;1999.90;999.90;;;;;;;11.99;72.37;101663.78;15612979;28;20052;-58
2021/10/19 04:19:09;;;;;;;1999.90;999.90;;;;;;;12.02;71.95;101665.94;15613132;28;20080;-58
2021/10/19 04:26:43;;;;;;;1999.90;999.90;;;;;;;12.06;71.97;101650.16;15585386;28;20103;-60
2021/10/19 04:34:16;;;;;;;1999.90;999.90;;;;;;;11.83;72.67;101645.75;15612629;28;20049;-60
2021/10/19 04:41:51;;;;;;;1999.90;999.90;;;;;;;11.64;73.38;101622.72;15612684;28;20041;-60
2021/10/19 04:49:23;;;;;;;1999.90;999.90;;;;;;;11.46;73.61;101622.59;15612647;28;20304;-60
2021/10/19 04:56:57;;;;;;;1999.90;999.90;;;;;;;11.25;74.88;101607.44;15611391;28;20090;-59
2021/10/19 05:04:30;;;;;;;1999.90;999.90;;;;;;;11.03;75.65;101605.47;15610084;28;20053;-60
2021/10/19 05:12:04;;;;;;;1999.90;999.90;;;;;;;11.46;74.26;101618.97;15609088;28;20050;-60
2021/10/19 05:19:37;;;;;;;1999.90;999.90;;;;;;;11.34;74.18;101602.75;15591440;28;20144;-60
2021/10/19 05:27:11;;;;;;;1999.90;999.90;;;;;;;11.03;75.60;101582.28;15604776;28;20122;-59
2021/10/19 05:34:45;;;;;;;1999.90;999.90;;;;;;;11.13;75.32;101590.44;15606767;28;20041;-60
2021/10/19 05:42:19;;;;;;;1999.90;999.90;;;;;;;11.48;73.91;101599.94;15588741;28;20053;-60
2021/10/19 05:49:52;;;;;;;1999.90;999.90;;;;;;;11.75;73.21;101629.69;15610348;28;20056;-58
2021/10/19 05:57:26;;;;;;;1999.90;999.90;;;;;;;11.99;72.40;101615.41;15610149;28;20129;-58
2021/10/19 06:04:59;;;;;;;1999.90;999.90;;;;;;;11.85;72.52;101613.50;15610011;28;20033;-55
2021/10/19 06:12:33;;;;;;;1999.90;999.90;;;;;;;12.03;72.11;101617.25;15608746;28;20053;-58
2021/10/19 06:20:06;;;;;;;1999.90;999.90;;;;;;;12.02;72.22;101611.97;15587363;28;20120;-58
2021/10/19 06:27:40;;;;;;;1999.90;999.90;;;;;;;12.08;72.47;101608.69;15600716;28;20100;-58
2021/10/19 06:35:13;;;;;;;1999.90;999.90;;;;;;;12.18;72.34;101617.97;15601750;28;20469;-60
2021/10/19 06:42:47;;;;;;;1999.90;999.90;;;;;;;12.45;71.38;101605.72;15590700;28;20067;-61
2021/10/19 06:50:19;;;;;;;1999.90;999.90;;;;;;;12.43;71.56;101595.69;15581317;28;20054;-59
2021/10/19 06:57:54;;;;;;;1999.90;999.90;;;;;;;12.59;70.92;101601.66;15599521;28;20043;-54
2021/10/19 07:05:26;;;;;;;1999.90;999.90;;;;;;;12.55;71.33;101595.06;15595803;28;20041;-56
2021/10/19 07:13:00;;;;;;;1999.90;999.90;;;;;;;12.74;70.63;101577.97;15602302;28;20119;-58
2021/10/19 07:20:33;;;;;;;1999.90;999.90;;;;;;;12.97;69.75;101599.09;15596660;28;20050;-55
2021/10/19 07:28:07;;;;;;;1999.90;999.90;;;;;;;13.08;69.61;101619.22;15605195;28;20073;-55
2021/10/19 07:45:00;;;;;;;1999.90;999.90;;;;;;;13.42;68.14;101600.78;15580842;28;20052;-58
2021/10/19 07:52:33;;;;;;;1999.90;999.90;;;;;;;13.41;68.08;101577.53;15600076;28;20548;-58
2021/10/19 08:00:08;;;;;;;1999.90;999.90;;;;;;;14.06;66.89;101583.97;15593676;28;20445;-60
2021/10/19 08:07:47;;;;;;;1999.90;999.90;;;;;;;14.31;65.58;101588.66;15610144;28;20128;-58
2021/10/19 08:15:21;;;;;;;1999.90;999.90;;;;;;;14.93;64.36;101599.25;15614759;28;20384;-57
2021/10/19 08:22:55;;;;;;;1999.90;999.90;;;;;;;16.10;59.79;101607.59;15609762;28;20052;-56
2021/10/19 08:30:29;;;;;;;1999.90;999.90;;;;;;;16.48;59.09;101620.56;15613351;28;20052;-54
2021/10/19 08:38:04;;;;;;;1999.90;999.90;;;;;;;16.18;59.65;101606.69;15614166;28;20442;-56
2021/10/19 08:45:38;;;;;;;1999.90;999.90;;;;;;;16.40;59.15;101606.25;15613942;28;20045;-56
2021/10/19 08:53:12;;;;;;;1999.90;999.90;;;;;;;17.43;57.25;101602.25;15628200;28;20303;-53
2021/10/19 09:00:47;;;;;;;1999.90;999.90;;;;;;;18.05;55.37;101586.66;15625209;28;20045;-61
2021/10/19 09:08:20;;;;;;;1999.90;999.90;;;;;;;17.90;56.07;101585.44;15611630;28;20459;-55
2021/10/19 09:15:53;;;;;;;1999.90;999.90;;;;;;;18.15;55.57;101597.44;15611399;28;20099;-56
2021/10/19 09:23:28;;;;;;;1999.90;999.90;;;;;;;17.44;56.97;101586.94;15612431;28;20108;-55
2021/10/19 09:31:02;;;;;;;1999.90;999.90;;;;;;;17.93;55.68;101593.22;15612204;28;20041;-56
2021/10/19 09:38:36;;;;;;;1999.90;999.90;;;;;;;17.73;56.01;101575.31;15610815;28;20069;-58
2021/10/19 09:46:11;;;;;;;1999.90;999.90;;;;;;;18.04;55.71;101570.91;15622698;23;20049;-56
2021/10/19 09:53:45;;;;;;;1999.90;999.90;;;;;;;17.95;56.20;101550.50;15587466;28;20042;-58
2021/10/19 10:01:19;;;;;;;1999.90;999.90;;;;;;;18.14;56.43;101542.94;15535392;28;20128;-58
2021/10/19 10:08:52;;;;;;;1999.90;999.90;;;;;;;18.29;55.74;101534.81;15547085;28;20116;-57
2021/10/19 10:16:27;;;;;;;1999.90;999.90;;;;;;;18.20;55.38;101518.03;15544828;28;20038;-61
2021/10/19 10:24:01;;;;;;;1999.90;999.90;;;;;;;18.59;54.95;101518.16;15530639;28;20120;-56
2021/10/19 10:31:46;;;;;;;1999.90;999.90;;;;;;;18.90;54.39;101512.44;15558431;28;20049;-60
2021/10/19 10:39:38;;;;;;;1999.90;999.90;;;;;;;18.69;54.52;101503.50;15545521;28;20041;-61
2021/10/19 10:47:19;;;;;;;1999.90;999.90;;;;;;;19.16;53.98;101497.63;15536867;28;20145;-58
2021/10/19 10:54:54;;;;;;;1999.90;999.90;;;;;;;18.88;53.57;101485.75;15549797;28;20052;-60
2021/10/19 11:02:28;;;;;;;1999.90;999.90;;;;;;;19.75;52.39;101487.88;15513524;28;20088;-61
2021/10/19 11:10:09;;;;;;;1999.90;999.90;;;;;;;20.97;49.20;101482.91;15542448;28;20134;-60
2021/10/19 11:17:48;;;;;;;1999.90;999.90;;;;;;;21.48;47.36;101473.00;15533923;28;20046;-61
2021/10/19 11:25:21;;;;;;;1999.90;999.90;;;;;;;22.22;46.83;101463.53;15557900;28;20049;-54
2021/10/19 11:32:55;;;;;;;1999.90;999.90;;;;;;;22.28;47.25;101456.25;15525595;28;20471;-63
2021/10/19 11:40:28;;;;;;;1999.90;999.90;;;;;;;21.77;47.84;101440.81;15533177;28;20173;-61
2021/10/19 11:48:02;;;;;;;1999.90;999.90;;;;;;;21.90;47.94;101439.31;15528527;28;20451;-56
2021/10/19 11:55:35;;;;;;;1999.90;999.90;;;;;;;21.53;49.56;101421.53;15533636;28;20042;-61
2021/10/19 12:03:11;;;;;;;1999.90;999.90;;;;;;;21.27;50.15;101403.44;15481899;28;20141;-61
2021/10/19 12:10:48;;;;;;;1999.90;999.90;;;;;;;20.05;52.40;101388.03;15521652;28;20145;-55
2021/10/19 12:18:22;;;;;;;1999.90;999.90;;;;;;;20.23;52.73;101383.47;15544311;28;20371;-58
2021/10/19 12:25:55;;;;;;;1999.90;999.90;;;;;;;20.50;52.23;101381.41;15507536;28;20052;-58
2021/10/19 12:33:31;;;;;;;1999.90;999.90;;;;;;;20.34;53.04;101363.78;15510895;28;20046;-58
2021/10/19 12:41:07;;;;;;;1999.90;999.90;;;;;;;20.37;53.27;101346.81;15522588;28;20406;-54
2021/10/19 12:48:42;;;;;;;1999.90;999.90;;;;;;;20.13;54.36;101335.97;15507646;28;20133;-55
2021/10/19 12:56:15;;;;;;;1999.90;999.90;;;;;;;19.93;55.19;101337.28;15515475;28;20510;-57
2021/10/19 13:03:50;;;;;;;1999.90;999.90;;;;;;;19.53;55.35;101327.31;15533134;28;20068;-60
2021/10/19 13:11:22;;;;;;;1999.90;999.90;;;;;;;19.83;55.28;101331.06;15519039;28;20076;-59
2021/10/19 13:18:56;;;;;;;1999.90;999.90;;;;;;;19.57;56.23;101334.69;15517363;28;20041;-59
2021/10/19 13:26:30;;;;;;;1999.90;999.90;;;;;;;19.78;55.74;101337.03;15521213;28;20463;-58
2021/10/19 13:34:06;;;;;;;1999.90;999.90;;;;;;;19.52;56.10;101328.53;15512956;28;20565;-60
2021/10/19 13:41:40;;;;;;;1999.90;999.90;;;;;;;19.59;55.69;101322.97;15510621;28;20053;-56
2021/10/19 13:49:14;;;;;;;1999.90;999.90;;;;;;;19.48;56.17;101305.81;15525406;28;20047;-57
2021/10/19 13:56:46;;;;;;;1999.90;999.90;;;;;;;19.43;56.51;101297.66;15534873;28;20037;-61
2021/10/19 14:04:20;;;;;;;1999.90;999.90;;;;;;;19.22;57.38;101297.28;15537121;28;20050;-59
2021/10/19 14:11:53;;;;;;;1999.90;999.90;;;;;;;19.54;56.71;101287.31;15550173;28;20045;-56
2021/10/19 14:19:26;;;;;;;1999.90;999.90;;;;;;;18.98;57.28;101276.69;15554577;28;20050;-59
2021/10/19 14:26:59;;;;;;;1999.90;999.90;;;;;;;19.07;57.59;101276.44;15541369;28;20042;-58
2021/10/19 14:34:32;;;;;;;1999.90;999.90;;;;;;;19.11;57.70;101265.19;15528372;28;20062;-60
2021/10/19 14:42:05;;;;;;;1999.90;999.90;;;;;;;19.12;58.08;101263.97;15533496;28;20050;-58
2021/10/19 14:49:39;;;;;;;1999.90;999.90;;;;;;;19.10;57.89;101257.88;15546988;28;20038;-55
2021/10/19 14:57:13;;;;;;;1999.90;999.90;;;;;;;19.06;58.22;101260.63;15502316;28;20077;-61
2021/10/19 15:04:47;;;;;;;1999.90;999.90;;;;;;;19.08;58.36;101251.81;15497358;28;20380;-60
2021/10/19 15:12:19;;;;;;;1999.90;999.90;;;;;;;18.97;58.58;101238.28;15504316;28;20056;-58
2021/10/19 15:19:53;;;;;;;1999.90;999.90;;;;;;;18.98;59.21;101230.63;15537689;28;20046;-59
2021/10/19 15:27:27;;;;;;;1999.90;999.90;;;;;;;18.99;59.35;101213.28;15495927;28;20045;-58
2021/10/19 15:35:02;;;;;;;1999.90;999.90;;;;;;;18.55;60.47;101204.41;15528515;28;20065;-58
2021/10/19 15:42:35;;;;;;;1999.90;999.90;;;;;;;18.45;61.16;101200.19;15539519;28;20053;-58
2021/10/19 15:50:10;;;;;;;1999.90;999.90;;;;;;;18.49;61.54;101213.53;15513563;28;20066;-58
2021/10/19 15:57:43;;;;;;;1999.90;999.90;;;;;;;18.51;61.85;101213.97;15531533;28;20061;-61
2021/10/19 16:05:17;;;;;;;1999.90;999.90;;;;;;;18.47;62.42;101211.09;15523883;28;20499;-57
2021/10/19 16:12:50;;;;;;;1999.90;999.90;;;;;;;18.33;63.07;101211.63;15482196;28;20073;-61
2021/10/19 16:20:24;;;;;;;1999.90;999.90;;;;;;;18.28;63.68;101211.94;15494877;28;20049;-58
2021/10/19 16:27:57;;;;;;;1999.90;999.90;;;;;;;18.04;64.92;101204.63;15534615;28;20050;-59
2021/10/19 16:35:33;;;;;;;1999.90;999.90;;;;;;;18.21;65.20;101206.16;15532399;28;20042;-56
2021/10/19 16:43:06;;;;;;;1999.90;999.90;;;;;;;18.06;65.65;101201.41;15534410;28;20474;-61
2021/10/19 16:50:40;;;;;;;1999.90;999.90;;;;;;;18.15;65.59;101188.69;15522853;28;20054;-58
2021/10/19 16:58:12;;;;;;;1999.90;999.90;;;;;;;18.07;66.04;101203.88;15516365;28;20038;-58
2021/10/19 17:05:46;;;;;;;1999.90;999.90;;;;;;;18.04;66.82;101164.25;15529002;28;20045;-58
2021/10/19 17:13:19;;;;;;;1999.90;999.90;;;;;;;17.95;67.15;101178.59;15533134;28;20471;-57
2021/10/19 17:20:54;;;;;;;1999.90;999.90;;;;;;;18.01;67.17;101171.44;15503722;28;20046;-62
2021/10/19 17:28:26;;;;;;;1999.90;999.90;;;;;;;18.02;67.15;101169.44;15516150;28;20129;-59
2021/10/19 17:36:02;;;;;;;1999.90;999.90;;;;;;;17.82;67.84;101171.44;15527557;28;20517;-60
2021/10/19 17:43:34;;;;;;;1999.90;999.90;;;;;;;17.73;68.15;101171.69;15524297;28;20580;-57
2021/10/19 17:51:09;;;;;;;1999.90;999.90;;;;;;;17.74;68.20;101167.69;15507874;28;20035;-62
2021/10/19 17:58:43;;;;;;;1999.90;999.90;;;;;;;17.85;67.86;101177.19;15522111;28;20039;-56
2021/10/19 18:06:17;;;;;;;1999.90;999.90;;;;;;;17.77;68.42;101137.91;15511190;28;20054;-60
2021/10/19 18:13:50;;;;;;;1999.90;999.90;;;;;;;17.84;68.28;101161.44;15507982;28;20396;-59
2021/10/19 18:21:25;;;;;;;1999.90;999.90;;;;;;;17.66;69.23;101167.88;15528198;28;20488;-61
2021/10/19 18:28:57;;;;;;;1999.90;999.90;;;;;;;17.46;69.70;101150.91;15540118;28;20079;-57
2021/10/19 18:36:31;;;;;;;1999.90;999.90;;;;;;;17.65;69.18;101141.66;15488816;28;20504;-58
2021/10/19 18:44:04;;;;;;;1999.90;999.90;;;;;;;17.82;68.64;101140.41;15498510;28;20069;-59
2021/10/19 18:51:38;;;;;;;1999.90;999.90;;;;;;;18.06;68.03;101137.28;15551521;28;20039;-56
2021/10/19 18:59:13;;;;;;;1999.90;999.90;;;;;;;17.96;67.84;101128.59;15562169;28;20141;-63
2021/10/19 19:06:51;;;;;;;1999.90;999.90;;;;;;;17.86;68.59;101136.47;15503516;28;20562;-59
2021/10/19 19:14:25;;;;;;;1999.90;999.90;;;;;;;17.65;70.25;101138.84;15551163;28;20149;-57
2021/10/19 19:21:59;;;;;;;1999.90;999.90;;;;;;;17.36;72.42;101134.56;15534259;28;20052;-57
2021/10/19 19:29:31;;;;;;;1999.90;999.90;;;;;;;17.23;72.96;101116.97;15504264;28;20427;-55
2021/10/19 19:37:05;;;;;;;1999.90;999.90;;;;;;;17.24;73.37;101120.59;15524983;28;20382;-58
2021/10/19 19:44:40;;;;;;;1999.90;999.90;;;;;;;17.08;74.60;101111.38;15514707;28;20053;-56
2021/10/19 19:52:13;;;;;;;1999.90;999.90;;;;;;;17.12;73.54;101098.19;15548423;28;20476;-61
2021/10/19 19:59:46;;;;;;;1999.90;999.90;;;;;;;17.12;73.41;101090.53;15520918;28;20122;-58
2021/10/19 20:07:20;;;;;;;1999.90;999.90;;;;;;;17.25;72.42;101086.41;15523258;28;20050;-57
2021/10/19 20:14:53;;;;;;;1999.90;999.90;;;;;;;17.39;72.07;101088.69;15541328;28;20236;-57
2021/10/19 20:22:27;;;;;;;1999.90;999.90;;;;;;;17.34;72.28;101079.72;15517839;28;20046;-59
2021/10/19 20:29:59;;;;;;;1999.90;999.90;;;;;;;17.14;72.29;101078.88;15504647;28;20056;-55
2021/10/19 20:37:33;;;;;;;1999.90;999.90;;;;;;;17.52;71.43;101080.94;15549611;28;20069;-59
2021/10/19 20:45:06;;;;;;;1999.90;999.90;;;;;;;17.20;72.58;101066.16;15533022;28;20049;-57
2021/10/19 20:52:40;;;;;;;1999.90;999.90;;;;;;;17.38;73.14;101078.59;15512757;28;20137;-59
2021/10/19 21:00:14;;;;;;;1999.90;999.90;;;;;;;17.19;73.72;101070.13;15508692;28;20052;-60
2021/10/19 21:07:49;;;;;;;1999.90;999.90;;;;;;;17.16;73.23;101066.06;15529882;28;20042;-58
2021/10/19 21:15:22;;;;;;;1999.90;999.90;;;;;;;17.08;74.02;101072.72;15489189;28;20046;-59
2021/10/19 21:22:56;;;;;;;1999.90;999.90;;;;;;;17.17;74.03;101058.41;15521649;28;20050;-57
2021/10/19 21:30:29;;;;;;;1999.90;999.90;;;;;;;16.99;75.48;101052.41;15488573;28;20348;-60
2021/10/19 21:38:03;;;;;;;1999.90;999.90;;;;;;;16.96;75.76;101051.09;15512368;28;20049;-60
2021/10/19 21:45:36;;;;;;;1999.90;999.90;;;;;;;16.83;76.35;101029.88;15514521;23;20319;-62
2021/10/19 21:53:10;;;;;;;1999.90;999.90;;;;;;;16.90;76.26;101009.50;15512671;28;20086;-63
2021/10/19 22:00:47;;;;;;;1999.90;999.90;;;;;;;16.83;76.39;101021.41;15527774;28;20566;-62
2021/10/19 22:08:21;;;;;;;1999.90;999.90;;;;;;;16.88;76.40;101032.41;15526284;28;20414;-62
2021/10/19 22:15:56;;;;;;;1999.90;999.90;;;;;;;16.98;75.81;101019.72;15504994;28;20042;-63
2021/10/19 22:31:30;;;;;;;1999.90;999.90;;;;;;;17.10;75.08;101007.53;15446235;28;20491;-61
2021/10/19 22:39:06;;;;;;;1999.90;999.90;;;;;;;17.07;75.31;101006.22;15516956;28;20328;-61
2021/10/19 22:46:39;;;;;;;1999.90;999.90;;;;;;;17.29;74.35;100982.13;15470318;28;20133;-63
2021/10/19 22:54:13;;;;;;;1999.90;999.90;;;;;;;17.17;74.22;100994.38;15515416;28;20073;-63
2021/10/19 23:01:46;;;;;;;1999.90;999.90;;;;;;;17.33;73.72;101007.59;15518099;28;20053;-63
2021/10/19 23:09:21;;;;;;;1999.90;999.90;;;;;;;17.25;74.37;100998.97;15499222;28;20073;-62
2021/10/19 23:16:53;;;;;;;1999.90;999.90;;;;;;;17.40;74.24;100983.13;15536546;28;20065;-62
2021/10/19 23:24:27;;;;;;;1999.90;999.90;;;;;;;17.14;75.45;100957.66;15503108;28;20043;-62
2021/10/19 23:32:00;;;;;;;1999.90;999.90;;;;;;;17.19;75.24;100958.16;15469452;28;20058;-62
2021/10/19 23:39:34;;;;;;;1999.90;999.90;;;;;;;16.92;76.18;100959.22;15514269;28;20074;-62
2021/10/19 23:47:06;;;;;;;1999.90;999.90;;;;;;;17.01;75.79;100945.72;15482787;28;20088;-62
2021/10/19 23:54:40;;;;;;;1999.90;999.90;;;;;;;17.10;75.95;100942.66;15531171;28;20042;-62
